createdAt,value
2022-08-08T00:00:50.752Z,16.90
2022-08-08T00:02:30.916Z,16.80
2022-08-08T00:05:09.846Z,16.70
2022-08-08T00:07:46.534Z,16.80
2022-08-08T00:10:28.577Z,16.80
2022-08-08T00:13:10.210Z,16.80
2022-08-08T00:15:57.279Z,16.80
2022-08-08T00:18:35.958Z,16.80
2022-08-08T00:21:07.822Z,16.70
2022-08-08T00:23:47.630Z,16.70
2022-08-08T00:26:26.129Z,16.70
2022-08-08T00:29:03.861Z,16.70
2022-08-08T00:32:15.245Z,16.70
2022-08-08T00:35:18.751Z,16.60
2022-08-08T00:38:16.990Z,16.60
2022-08-08T00:41:55.296Z,16.50
2022-08-08T00:45:20.930Z,16.40
2022-08-08T00:48:30.138Z,16.40
2022-08-08T00:51:38.235Z,16.30
2022-08-08T00:54:38.946Z,16.20
2022-08-08T00:57:57.064Z,16.20
2022-08-08T01:00:28.362Z,16.20
2022-08-08T01:04:02.319Z,16.10
2022-08-08T01:07:01.508Z,16.10
2022-08-08T01:10:08.726Z,16.10
2022-08-08T01:13:14.979Z,16.00
2022-08-08T01:16:27.872Z,16.00
2022-08-08T01:20:01.266Z,16.00
2022-08-08T01:23:04.734Z,16.00
2022-08-08T01:26:17.964Z,15.90
2022-08-08T01:29:12.340Z,15.80
2022-08-08T01:32:21.171Z,15.80
2022-08-08T01:35:12.536Z,15.80
2022-08-08T01:38:22.107Z,15.70
2022-08-08T01:41:02.274Z,15.70
2022-08-08T01:43:50.583Z,15.70
2022-08-08T01:46:47.374Z,15.70
2022-08-08T01:49:37.813Z,15.60
2022-08-08T01:53:03.665Z,15.50
2022-08-08T01:55:25.980Z,15.40
2022-08-08T01:58:19.067Z,15.40
2022-08-08T02:01:16.006Z,15.40
2022-08-08T02:04:00.903Z,15.30
2022-08-08T02:06:52.161Z,15.30
2022-08-08T02:09:50.200Z,15.40
2022-08-08T02:12:27.169Z,15.30
2022-08-08T02:15:05.114Z,15.30
2022-08-08T02:17:50.588Z,15.40
2022-08-08T02:21:01.425Z,15.30
2022-08-08T02:23:31.889Z,15.30
2022-08-08T02:26:08.284Z,15.30
2022-08-08T02:28:55.311Z,15.30
2022-08-08T02:31:59.506Z,15.20
2022-08-08T02:35:07.971Z,15.20
2022-08-08T02:37:52.278Z,15.20
2022-08-08T02:40:38.729Z,15.10
2022-08-08T02:44:37.128Z,15.10
2022-08-08T02:46:53.930Z,15.10
2022-08-08T02:49:58.155Z,15.10
2022-08-08T02:52:43.435Z,15.00
2022-08-08T02:56:04.032Z,14.90
2022-08-08T02:59:25.843Z,14.80
2022-08-08T03:02:50.829Z,14.70
2022-08-08T03:05:51.498Z,14.70
2022-08-08T03:09:05.521Z,14.80
2022-08-08T03:12:14.004Z,14.90
2022-08-08T03:15:56.876Z,14.90
2022-08-08T03:17:59.908Z,14.90
2022-08-08T03:20:51.357Z,15.00
2022-08-08T03:23:23.439Z,14.90
2022-08-08T03:25:54.945Z,14.90
2022-08-08T03:28:31.920Z,14.90
2022-08-08T03:31:07.844Z,14.80
2022-08-08T03:33:56.115Z,14.80
2022-08-08T03:36:30.318Z,14.80
2022-08-08T03:39:14.618Z,14.70
2022-08-08T03:42:28.063Z,14.70
2022-08-08T03:44:34.740Z,14.60
2022-08-08T03:47:07.042Z,14.70
2022-08-08T03:50:00.947Z,14.80
2022-08-08T03:52:31.591Z,14.70
2022-08-08T03:55:10.985Z,14.80
2022-08-08T03:58:31.445Z,14.80
2022-08-08T04:01:01.552Z,14.70
2022-08-08T04:03:58.517Z,14.70
2022-08-08T04:06:24.574Z,14.70
2022-08-08T04:08:58.634Z,14.80
2022-08-08T04:11:58.295Z,14.80
2022-08-08T04:14:34.493Z,14.90
2022-08-08T04:17:06.969Z,14.80
2022-08-08T04:19:51.802Z,14.80
2022-08-08T04:22:24.037Z,14.70
2022-08-08T04:24:52.475Z,14.60
2022-08-08T04:28:02.799Z,14.60
2022-08-08T04:30:17.815Z,14.60
2022-08-08T04:32:50.106Z,14.70
2022-08-08T04:35:20.312Z,14.70
2022-08-08T04:37:52.492Z,14.80
2022-08-08T04:40:23.769Z,14.80
2022-08-08T04:42:57.142Z,14.90
2022-08-08T04:45:25.786Z,15.00
2022-08-08T04:47:54.332Z,14.90
2022-08-08T04:50:24.815Z,14.90
2022-08-08T04:53:14.202Z,14.90
2022-08-08T04:55:56.627Z,15.00
2022-08-08T04:58:26.882Z,15.10
2022-08-08T05:00:55.248Z,15.10
2022-08-08T05:04:10.002Z,15.20
2022-08-08T05:06:18.206Z,15.20
2022-08-08T05:08:51.312Z,15.20
2022-08-08T05:11:24.615Z,15.30
2022-08-08T05:13:58.706Z,15.30
2022-08-08T05:16:52.408Z,15.30
2022-08-08T05:20:12.852Z,15.30
2022-08-08T05:22:07.545Z,15.40
2022-08-08T05:24:37.222Z,15.50
2022-08-08T05:27:05.854Z,15.50
2022-08-08T05:29:36.996Z,15.60
2022-08-08T05:32:07.356Z,15.50
2022-08-08T05:34:38.296Z,15.60
2022-08-08T05:37:07.601Z,15.60
2022-08-08T05:39:50.901Z,15.70
2022-08-08T05:42:19.625Z,15.80
2022-08-08T05:45:00.375Z,15.90
2022-08-08T05:47:30.023Z,15.90
2022-08-08T05:50:19.106Z,16.00
2022-08-08T05:52:49.034Z,16.10
2022-08-08T05:55:17.747Z,16.10
2022-08-08T05:58:05.924Z,16.10
2022-08-08T06:00:37.580Z,16.20
2022-08-08T06:03:24.980Z,16.20
2022-08-08T06:05:59.170Z,16.30
2022-08-08T06:08:34.562Z,16.40
2022-08-08T06:11:04.397Z,16.40
2022-08-08T06:13:35.889Z,16.50
2022-08-08T06:16:14.150Z,16.60
2022-08-08T06:18:43.214Z,16.80
2022-08-08T06:21:32.865Z,16.80
2022-08-08T06:24:03.753Z,16.90
2022-08-08T06:26:45.306Z,17.00
2022-08-08T06:30:00.942Z,17.10
2022-08-08T06:32:32.558Z,17.30
2022-08-08T06:36:04.549Z,17.50
2022-08-08T06:38:00.672Z,17.60
2022-08-08T06:40:32.369Z,17.80
2022-08-08T06:43:30.565Z,17.90
2022-08-08T06:46:03.260Z,18.00
2022-08-08T06:48:32.683Z,18.10
2022-08-08T06:51:06.890Z,18.30
2022-08-08T06:53:39.669Z,18.20
2022-08-08T06:56:10.710Z,18.20
2022-08-08T06:58:40.014Z,18.20
2022-08-08T07:02:17.065Z,18.30
2022-08-08T07:04:37.899Z,18.40
2022-08-08T07:06:58.970Z,18.60
2022-08-08T07:09:45.393Z,18.80
2022-08-08T07:12:40.114Z,19.00
2022-08-08T07:15:32.800Z,19.20
2022-08-08T07:18:36.261Z,19.20
2022-08-08T07:20:57.754Z,19.10
2022-08-08T07:24:01.055Z,19.20
2022-08-08T07:26:29.094Z,19.20
2022-08-08T07:29:11.476Z,19.20
2022-08-08T07:31:41.283Z,19.30
2022-08-08T07:34:20.307Z,19.40
2022-08-08T07:36:58.516Z,19.60
2022-08-08T07:39:29.539Z,19.80
2022-08-08T07:42:14.288Z,19.90
2022-08-08T07:44:51.460Z,20.00
2022-08-08T07:47:38.247Z,19.90
2022-08-08T07:50:08.333Z,20.10
2022-08-08T07:52:44.403Z,20.30
2022-08-08T07:55:22.921Z,20.50
2022-08-08T07:58:08.419Z,20.80
2022-08-08T08:00:44.786Z,20.90
2022-08-08T08:03:23.746Z,20.90
2022-08-08T08:05:53.544Z,20.90
2022-08-08T08:08:28.826Z,21.00
2022-08-08T08:11:21.006Z,21.00
2022-08-08T08:14:08.424Z,21.20
2022-08-08T08:16:41.054Z,21.30
2022-08-08T08:19:10.745Z,21.50
2022-08-08T08:21:56.961Z,21.40
2022-08-08T08:24:30.553Z,21.50
2022-08-08T08:27:02.733Z,21.70
2022-08-08T08:29:31.943Z,22.00
2022-08-08T08:32:05.483Z,22.20
2022-08-08T08:34:34.252Z,22.40
2022-08-08T08:37:03.347Z,22.50
2022-08-08T08:40:00.416Z,22.90
2022-08-08T08:42:31.902Z,23.30
2022-08-08T08:45:21.432Z,23.30
2022-08-08T08:47:53.154Z,23.50
2022-08-08T08:50:33.664Z,23.80
2022-08-08T08:53:27.393Z,24.00
2022-08-08T08:56:02.572Z,24.10
2022-08-08T08:58:35.598Z,23.70
2022-08-08T09:01:10.076Z,23.80
2022-08-08T09:03:47.008Z,23.80
2022-08-08T09:06:28.329Z,23.60
2022-08-08T09:09:04.169Z,23.90
2022-08-08T09:11:47.792Z,24.30
2022-08-08T09:14:25.935Z,24.40
2022-08-08T09:16:54.897Z,24.40
2022-08-08T09:22:00.535Z,24.40
2022-08-08T09:22:25.949Z,24.40
2022-08-08T09:24:58.466Z,24.50
2022-08-08T09:28:08.038Z,24.40
2022-08-08T09:30:42.578Z,24.60
2022-08-08T09:34:06.236Z,24.70
2022-08-08T09:36:06.028Z,24.80
2022-08-08T09:38:52.392Z,25.30
2022-08-08T09:41:33.507Z,25.50
2022-08-08T09:44:29.905Z,25.40
2022-08-08T09:47:26.671Z,25.30
2022-08-08T09:50:03.958Z,25.50
2022-08-08T09:53:05.720Z,25.40
2022-08-08T09:55:51.366Z,25.70
2022-08-08T09:58:26.322Z,25.40
2022-08-08T10:01:14.310Z,25.50
2022-08-08T10:03:55.949Z,25.50
2022-08-08T10:06:26.803Z,26.00
2022-08-08T10:08:58.039Z,26.20
2022-08-08T10:12:26.038Z,26.50
2022-08-08T10:14:34.841Z,26.70
2022-08-08T10:17:06.221Z,26.70
2022-08-08T10:19:59.862Z,26.30
2022-08-08T10:22:30.021Z,26.20
2022-08-08T10:25:04.825Z,26.30
2022-08-08T10:27:42.814Z,26.40
2022-08-08T10:30:16.651Z,26.50
2022-08-08T10:33:02.227Z,26.70
2022-08-08T10:36:08.163Z,26.90
2022-08-08T10:38:21.821Z,27.10
2022-08-08T10:40:53.214Z,27.00
2022-08-08T10:43:23.166Z,26.90
2022-08-08T10:45:55.663Z,27.00
2022-08-08T10:48:57.911Z,27.20
2022-08-08T10:51:24.209Z,27.40
2022-08-08T10:53:58.086Z,27.60
2022-08-08T10:56:32.324Z,27.60
2022-08-08T10:59:01.264Z,27.30
2022-08-08T11:01:33.320Z,27.60
2022-08-08T11:04:10.907Z,27.80
2022-08-08T11:06:41.924Z,27.90
2022-08-08T11:09:19.835Z,28.00
2022-08-08T11:12:05.864Z,27.90
2022-08-08T11:14:51.713Z,27.50
2022-08-08T11:18:00.915Z,27.60
2022-08-08T11:20:17.800Z,27.50
2022-08-08T11:22:50.626Z,28.10
2022-08-08T11:25:22.572Z,28.00
2022-08-08T11:28:13.581Z,27.70
2022-08-08T11:30:50.265Z,27.60
2022-08-08T11:33:23.113Z,27.80
2022-08-08T11:36:14.780Z,28.30
2022-08-08T11:38:53.923Z,29.00
2022-08-08T11:41:24.672Z,29.00
2022-08-08T11:43:54.688Z,29.30
2022-08-08T11:46:30.474Z,29.50
2022-08-08T11:49:04.185Z,29.20
2022-08-08T11:51:40.117Z,27.80
2022-08-08T11:54:31.219Z,26.90
2022-08-08T11:57:16.804Z,27.90
2022-08-08T12:00:00.525Z,28.50
2022-08-08T12:02:33.782Z,29.40
2022-08-08T12:05:08.177Z,29.80
2022-08-08T12:07:53.069Z,30.40
2022-08-08T12:10:23.109Z,30.80
2022-08-08T12:13:01.697Z,31.10
2022-08-08T12:15:42.473Z,31.10
2022-08-08T12:18:20.807Z,31.10
2022-08-08T12:20:50.118Z,31.30
2022-08-08T12:23:44.177Z,31.30
2022-08-08T12:26:28.567Z,31.70
2022-08-08T12:29:21.117Z,31.70
2022-08-08T12:32:02.820Z,31.70
2022-08-08T12:34:39.797Z,32.00
2022-08-08T12:37:11.257Z,31.40
2022-08-08T12:40:00.873Z,31.70
2022-08-08T12:42:33.782Z,31.30
2022-08-08T12:45:54.842Z,30.70
2022-08-08T12:48:09.782Z,30.30
2022-08-08T12:50:49.564Z,29.70
2022-08-08T12:53:30.239Z,30.00
2022-08-08T12:56:19.092Z,30.30
2022-08-08T12:58:54.506Z,30.60
2022-08-08T13:01:36.812Z,31.50
2022-08-08T13:04:18.400Z,32.30
2022-08-08T13:06:55.656Z,32.90
2022-08-08T13:09:43.095Z,33.00
2022-08-08T13:12:30.626Z,32.30
2022-08-08T13:15:02.214Z,31.40
2022-08-08T13:18:09.286Z,31.60
2022-08-08T13:20:22.048Z,31.60
2022-08-08T13:22:55.972Z,32.10
2022-08-08T13:25:36.657Z,30.60
2022-08-08T13:28:06.659Z,31.00
2022-08-08T13:30:35.163Z,31.60
2022-08-08T13:33:04.002Z,31.00
2022-08-08T13:35:38.686Z,31.70
2022-08-08T13:38:13.173Z,32.70
2022-08-08T13:40:45.102Z,32.50
2022-08-08T13:43:16.402Z,33.00
2022-08-08T13:45:47.387Z,34.10
2022-08-08T13:48:17.405Z,34.30
2022-08-08T13:50:57.750Z,35.10
2022-08-08T13:54:00.340Z,34.70
2022-08-08T13:56:40.202Z,32.40
2022-08-08T13:59:14.355Z,31.50
2022-08-08T14:01:57.077Z,30.60
2022-08-08T14:04:27.706Z,30.40
2022-08-08T14:07:01.713Z,30.00
2022-08-08T14:10:04.874Z,30.90
2022-08-08T14:12:28.016Z,31.90
2022-08-08T14:14:58.823Z,31.90
2022-08-08T14:17:57.877Z,31.60
2022-08-08T14:20:56.609Z,31.20
2022-08-08T14:23:10.018Z,31.70
2022-08-08T14:25:46.408Z,30.20
2022-08-08T14:28:23.080Z,30.00
2022-08-08T14:31:09.414Z,30.00
2022-08-08T14:33:39.463Z,29.60
2022-08-08T14:36:11.487Z,31.50
2022-08-08T14:38:52.440Z,31.70
2022-08-08T14:41:54.167Z,31.90
2022-08-08T14:44:14.005Z,32.70
2022-08-08T14:47:00.211Z,34.20
2022-08-08T14:49:51.406Z,34.60
2022-08-08T14:52:23.044Z,35.40
2022-08-08T14:54:51.356Z,35.50
2022-08-08T14:57:20.801Z,34.50
2022-08-08T15:00:10.659Z,33.20
2022-08-08T15:02:58.787Z,32.30
2022-08-08T15:05:42.770Z,30.40
2022-08-08T15:08:22.159Z,30.50
2022-08-08T15:11:01.419Z,31.60
2022-08-08T15:13:39.886Z,32.90
2022-08-08T15:16:12.228Z,33.10
2022-08-08T15:18:51.470Z,33.50
2022-08-08T15:21:20.781Z,31.40
2022-08-08T15:23:51.080Z,32.40
2022-08-08T15:26:20.059Z,33.70
2022-08-08T15:28:53.158Z,35.00
2022-08-08T15:31:55.652Z,34.10
2022-08-08T15:34:29.091Z,34.40
2022-08-08T15:36:58.791Z,35.00
2022-08-08T15:39:31.086Z,33.30
2022-08-08T15:41:59.828Z,33.00
2022-08-08T15:44:29.922Z,34.20
2022-08-08T15:46:59.527Z,34.90
2022-08-08T15:49:29.492Z,33.80
2022-08-08T15:51:57.677Z,31.60
2022-08-08T15:54:39.081Z,30.90
2022-08-08T15:57:09.057Z,31.70
2022-08-08T16:00:05.596Z,33.00
2022-08-08T16:02:31.176Z,33.10
2022-08-08T16:05:01.908Z,31.90
2022-08-08T16:07:51.516Z,31.50
2022-08-08T16:13:14.267Z,30.50
2022-08-08T16:13:28.590Z,31.20
2022-08-08T16:15:57.456Z,30.70
2022-08-08T16:18:28.046Z,31.80
2022-08-08T16:21:00.318Z,32.10
2022-08-08T16:23:31.367Z,32.90
2022-08-08T16:35:23.129Z,33.90
2022-08-08T16:37:52.863Z,32.60
2022-08-08T16:40:24.953Z,33.00
2022-08-08T16:42:57.248Z,32.20
2022-08-08T16:46:36.506Z,33.60
2022-08-08T16:48:16.273Z,34.50
2022-08-08T16:50:44.402Z,34.90
2022-08-08T16:55:02.065Z,34.50
2022-08-08T16:56:03.457Z,33.50
2022-08-08T16:58:35.915Z,33.70
2022-08-08T17:01:05.923Z,33.80
2022-08-08T17:03:57.926Z,33.90
2022-08-08T17:06:36.257Z,35.30
2022-08-08T17:09:14.768Z,35.20
2022-08-08T17:11:48.518Z,35.00
2022-08-08T17:14:19.392Z,35.30
2022-08-08T17:16:57.631Z,35.50
2022-08-08T17:19:29.081Z,35.50
2022-08-08T17:22:01.279Z,35.20
2022-08-08T17:24:32.826Z,35.00
2022-08-08T17:27:02.535Z,34.60
2022-08-08T17:29:33.876Z,34.20
2022-08-08T17:32:05.916Z,33.80
2022-08-08T17:35:27.648Z,33.40
2022-08-08T17:37:25.041Z,33.60
2022-08-08T17:40:08.879Z,32.90
2022-08-08T17:42:47.077Z,32.40
2022-08-08T17:45:23.624Z,32.90
2022-08-08T17:47:54.263Z,33.00
2022-08-08T17:50:23.528Z,33.10
2022-08-08T17:52:51.691Z,32.60
2022-08-08T17:56:06.108Z,32.20
2022-08-08T17:58:11.711Z,31.70
2022-08-08T18:00:41.644Z,31.00
2022-08-08T18:03:13.409Z,30.50
2022-08-08T18:05:49.771Z,30.10
2022-08-08T18:08:24.671Z,29.40
2022-08-08T18:11:11.817Z,28.80
2022-08-08T18:13:42.840Z,28.10
2022-08-08T18:16:12.783Z,27.60
2022-08-08T18:18:45.577Z,27.60
2022-08-08T18:21:34.883Z,27.70
2022-08-08T18:24:18.931Z,27.60
2022-08-08T18:26:54.422Z,27.30
2022-08-08T18:29:30.080Z,27.00
2022-08-08T18:32:03.451Z,26.60
2022-08-08T18:34:33.042Z,26.20
2022-08-08T18:37:03.013Z,26.00
2022-08-08T18:39:36.465Z,25.70
2022-08-08T18:42:13.960Z,25.40
2022-08-08T18:44:54.972Z,25.30
2022-08-08T18:47:24.898Z,25.00
2022-08-08T18:49:58.292Z,24.80
2022-08-08T18:52:29.693Z,24.70
2022-08-08T18:55:00.613Z,24.60
2022-08-08T18:57:45.000Z,24.40
2022-08-08T19:00:16.682Z,24.30
2022-08-08T19:02:55.746Z,24.10
2022-08-08T19:05:30.238Z,24.10
2022-08-08T19:08:04.273Z,23.90
2022-08-08T19:10:33.022Z,23.80
2022-08-08T19:13:04.616Z,23.70
2022-08-08T19:15:39.359Z,23.50
2022-08-08T19:18:31.877Z,23.50
2022-08-08T19:21:29.616Z,23.40
2022-08-08T19:23:58.414Z,23.30
2022-08-08T19:26:31.367Z,23.20
2022-08-08T19:29:01.390Z,23.10
2022-08-08T19:31:35.178Z,23.00
2022-08-08T19:34:36.216Z,22.90
2022-08-08T19:36:58.513Z,22.80
2022-08-08T19:39:30.922Z,22.70
2022-08-08T19:42:06.783Z,22.60
2022-08-08T19:44:45.685Z,22.60
2022-08-08T19:47:14.942Z,22.60
2022-08-08T19:50:00.644Z,22.50
2022-08-08T19:52:34.285Z,22.40
2022-08-08T19:55:05.153Z,22.30
2022-08-08T19:57:35.619Z,22.20
2022-08-08T20:00:11.502Z,22.10
2022-08-08T20:02:56.805Z,22.00
2022-08-08T20:06:14.704Z,21.90
2022-08-08T20:08:38.813Z,21.80
2022-08-08T20:11:02.242Z,21.60
2022-08-08T20:14:12.536Z,21.60
2022-08-08T20:16:20.739Z,21.60
2022-08-08T20:18:53.202Z,21.50
2022-08-08T20:21:25.751Z,21.60
2022-08-08T20:23:57.738Z,21.50
2022-08-08T20:26:33.421Z,21.40
2022-08-08T20:29:02.073Z,21.40
2022-08-08T20:32:08.177Z,21.40
2022-08-08T20:34:30.075Z,21.30
2022-08-08T20:37:00.994Z,21.30
2022-08-08T20:39:39.710Z,21.30
2022-08-08T20:42:28.398Z,21.20
2022-08-08T20:44:58.535Z,21.20
2022-08-08T20:47:28.866Z,21.20
2022-08-08T20:50:05.829Z,21.20
2022-08-08T20:52:34.146Z,21.20
2022-08-08T20:55:07.637Z,21.10
2022-08-08T20:57:47.604Z,21.00
2022-08-08T21:00:19.576Z,20.90
2022-08-08T21:02:52.567Z,20.90
2022-08-08T21:05:21.473Z,20.80
2022-08-08T21:08:33.899Z,20.70
2022-08-08T21:10:40.762Z,20.60
2022-08-08T21:13:08.981Z,20.50
2022-08-08T21:16:03.982Z,20.50
2022-08-08T21:18:28.066Z,20.40
2022-08-08T21:20:56.485Z,20.30
2022-08-08T21:23:25.240Z,20.30
2022-08-08T21:26:13.230Z,20.10
2022-08-08T21:28:56.012Z,20.00
2022-08-08T21:31:53.011Z,20.00
2022-08-08T21:34:19.331Z,20.10
2022-08-08T21:36:49.386Z,20.10
2022-08-08T21:39:17.628Z,20.00
2022-08-08T21:41:53.831Z,20.00
2022-08-08T21:44:27.198Z,20.00
2022-08-08T21:48:08.231Z,19.90
2022-08-08T21:49:44.468Z,19.80
2022-08-08T21:54:22.737Z,19.70
2022-08-08T21:55:04.156Z,19.70
2022-08-08T21:57:41.795Z,19.70
2022-08-08T22:00:14.205Z,19.70
2022-08-08T22:02:43.025Z,19.60
2022-08-08T22:05:15.295Z,19.60
2022-08-08T22:07:48.528Z,19.60
2022-08-08T22:10:32.187Z,19.50
2022-08-08T22:13:17.032Z,19.50
2022-08-08T22:15:59.521Z,19.50
2022-08-08T22:18:30.011Z,19.50
2022-08-08T22:21:08.360Z,19.40
2022-08-08T22:23:41.043Z,19.40
2022-08-08T22:26:28.950Z,19.30
2022-08-08T22:29:14.787Z,19.30
2022-08-08T22:31:58.588Z,19.30
2022-08-08T22:34:32.017Z,19.20
2022-08-08T22:37:01.710Z,19.20
2022-08-08T22:39:45.780Z,19.10
2022-08-08T22:42:27.635Z,19.00
2022-08-08T22:44:59.712Z,18.90
2022-08-08T22:47:34.349Z,18.80
2022-08-08T22:50:24.980Z,18.70
2022-08-08T22:54:15.753Z,18.70
2022-08-08T22:55:59.041Z,18.70
2022-08-08T22:58:30.882Z,18.70
2022-08-08T23:01:00.566Z,18.60
2022-08-08T23:03:34.216Z,18.50
2022-08-08T23:06:17.933Z,18.50
2022-08-08T23:08:55.097Z,18.60
2022-08-08T23:11:31.114Z,18.50
2022-08-08T23:14:13.065Z,18.50
2022-08-08T23:16:43.937Z,18.40
2022-08-08T23:19:15.336Z,18.30
2022-08-08T23:21:45.735Z,18.20
2022-08-08T23:24:23.109Z,18.20
2022-08-08T23:26:55.563Z,18.20
2022-08-08T23:29:25.372Z,18.20
2022-08-08T23:31:53.564Z,18.20
2022-08-08T23:34:22.203Z,18.20
2022-08-08T23:36:56.746Z,18.10
2022-08-08T23:39:32.354Z,18.10
2022-08-08T23:42:10.685Z,18.10
2022-08-08T23:44:39.335Z,18.20
2022-08-08T23:49:02.735Z,18.20
2022-08-08T23:50:03.207Z,18.20
2022-08-08T23:52:34.975Z,18.10
2022-08-08T23:55:14.552Z,18.00
2022-08-08T23:57:53.592Z,18.00
